Data at: 1711 UTC 20 Aug 2017

METAR for:KAFF (Air Force Academy Ai, CO, US)
Text:KAFF 201658Z AUTO 02012KT 10SM FEW200 28/03 A3020 RMK AO2 SLP130 T02770027
Temperature: 27.7°C ( 82°F)
Dewpoint: 2.7°C ( 37°F) [RH = 20%]
Pressure (altimeter):30.20 inches Hg (1022.8 mb) [Sea level pressure: 1013.0 mb]
Winds:from the NNE (20 degrees) at 14 MPH (12 knots; 6.2 m/s)
Visibility:10 or more sm (16+ km)
Ceiling:at least 12,000 feet AGL
Clouds: few clouds at 20000 feet AGL
QC Flag:automated observation with no human augmentation
Text:KAFF 201558Z AUTO 36008KT 10SM CLR 27/04 A3019 RMK AO2 SLP123 T02680035
Temperature: 26.8°C ( 80°F)
Dewpoint: 3.5°C ( 38°F) [RH = 22%]
Pressure (altimeter):30.19 inches Hg (1022.4 mb) [Sea level pressure: 1012.3 mb]
Winds:from the N (360 degrees) at 9 MPH (8 knots; 4.1 m/s)
Visibility:10 or more sm (16+ km)
Ceiling:at least 12,000 feet AGL
Clouds:sky clear below 12,000 feet AGL
QC Flag:automated observation with no human augmentation
Text:KAFF 201458Z AUTO 34006KT 10SM CLR 23/07 A3019 RMK AO2 SLP126 T02310067 51009
Temperature: 23.1°C ( 74°F)
Dewpoint: 6.7°C ( 44°F) [RH = 35%]
Pressure (altimeter):30.19 inches Hg (1022.4 mb) [Sea level pressure: 1012.6 mb]
Winds:from the NNW (340 degrees) at 7 MPH (6 knots; 3.1 m/s)
Visibility:10 or more sm (16+ km)
Ceiling:at least 12,000 feet AGL
Clouds:sky clear below 12,000 feet AGL
QC Flag:automated observation with no human augmentation
Text:KAFF 201358Z AUTO 00000KT 10SM CLR 17/07 A3019 RMK AO2 SLP138 T01690072
Temperature: 16.9°C ( 62°F)
Dewpoint: 7.2°C ( 45°F) [RH = 53%]
Pressure (altimeter):30.19 inches Hg (1022.4 mb) [Sea level pressure: 1013.8 mb]
Winds:calm
Visibility:10 or more sm (16+ km)
Ceiling:at least 12,000 feet AGL
Clouds:sky clear below 12,000 feet AGL
QC Flag:automated observation with no human augmentation
Text:KAFF 201258Z AUTO 34007KT 10SM CLR 12/05 A3017 RMK AO2 SLP136 T01160047
Temperature: 11.6°C ( 53°F)
Dewpoint: 4.7°C ( 40°F) [RH = 63%]
Pressure (altimeter):30.17 inches Hg (1021.8 mb) [Sea level pressure: 1013.6 mb]
Winds:from the NNW (340 degrees) at 8 MPH (7 knots; 3.6 m/s)
Visibility:10 or more sm (16+ km)
Ceiling:at least 12,000 feet AGL
Clouds:sky clear below 12,000 feet AGL
QC Flag:automated observation with no human augmentation
Text:KAFF 201158Z AUTO 01004KT 10SM CLR 12/05 A3016 RMK AO2 SLP132 T01210054 10149 20112 55002
Temperature: 12.1°C ( 54°F)
Dewpoint: 5.4°C ( 42°F) [RH = 64%]
Pressure (altimeter):30.16 inches Hg (1021.4 mb) [Sea level pressure: 1013.2 mb]
Winds:from the N (10 degrees) at 5 MPH (4 knots; 2.1 m/s)
Visibility:10 or more sm (16+ km)
Ceiling:at least 12,000 feet AGL
Clouds:sky clear below 12,000 feet AGL
QC Flag:automated observation with no human augmentation
Text:KAFF 201058Z AUTO 35005KT 10SM CLR 12/06 A3015 RMK AO2 SLP123 T01200060
Temperature: 12.0°C ( 54°F)
Dewpoint: 6.0°C ( 43°F) [RH = 67%]
Pressure (altimeter):30.15 inches Hg (1021.1 mb) [Sea level pressure: 1012.3 mb]
Winds:from the N (350 degrees) at 6 MPH (5 knots; 2.6 m/s)
Visibility:10 or more sm (16+ km)
Ceiling:at least 12,000 feet AGL
Clouds:sky clear below 12,000 feet AGL
QC Flag:automated observation with no human augmentation
Text:KAFF 200958Z AUTO 36006KT 10SM CLR 13/06 A3016 RMK AO2 SLP119 T01320062
Temperature: 13.2°C ( 56°F)
Dewpoint: 6.2°C ( 43°F) [RH = 62%]
Pressure (altimeter):30.16 inches Hg (1021.4 mb) [Sea level pressure: 1011.9 mb]
Winds:from the N (360 degrees) at 7 MPH (6 knots; 3.1 m/s)
Visibility:10 or more sm (16+ km)
Ceiling:at least 12,000 feet AGL
Clouds:sky clear below 12,000 feet AGL
QC Flag:automated observation with no human augmentation
Text:KAFF 200858Z AUTO 36007KT 10SM CLR 12/07 A3016 RMK AO2 SLP119 T01190065 57007
Temperature: 11.9°C ( 53°F)
Dewpoint: 6.5°C ( 44°F) [RH = 69%]
Pressure (altimeter):30.16 inches Hg (1021.4 mb) [Sea level pressure: 1011.9 mb]
Winds:from the N (360 degrees) at 8 MPH (7 knots; 3.6 m/s)
Visibility:10 or more sm (16+ km)
Ceiling:at least 12,000 feet AGL
Clouds:sky clear below 12,000 feet AGL
QC Flag:automated observation with no human augmentation
Text:KAFF 200758Z AUTO 35008KT 10SM CLR 12/07 A3017 RMK AO2 SLP122 T01240065
Temperature: 12.4°C ( 54°F)
Dewpoint: 6.5°C ( 44°F) [RH = 67%]
Pressure (altimeter):30.17 inches Hg (1021.8 mb) [Sea level pressure: 1012.2 mb]
Winds:from the N (350 degrees) at 9 MPH (8 knots; 4.1 m/s)
Visibility:10 or more sm (16+ km)
Ceiling:at least 12,000 feet AGL
Clouds:sky clear below 12,000 feet AGL
QC Flag:automated observation with no human augmentation
Text:KAFF 200658Z AUTO 36008KT 10SM CLR 14/07 A3018 RMK AO2 SLP123 T01390067 403040096
Temperature: 13.9°C ( 57°F)
Dewpoint: 6.7°C ( 44°F) [RH = 62%]
Pressure (altimeter):30.18 inches Hg (1022.1 mb) [Sea level pressure: 1012.3 mb]
Winds:from the N (360 degrees) at 9 MPH (8 knots; 4.1 m/s)
Visibility:10 or more sm (16+ km)
Ceiling:at least 12,000 feet AGL
Clouds:sky clear below 12,000 feet AGL
QC Flag:automated observation with no human augmentation
Text:KAFF 200558Z AUTO 01006KT 10SM CLR 15/08 A3019 RMK AO2 SLP126 60000 T01480080 10256 20148 50003
Temperature: 14.8°C ( 59°F)
Dewpoint: 8.0°C ( 46°F) [RH = 64%]
Pressure (altimeter):30.19 inches Hg (1022.4 mb) [Sea level pressure: 1012.6 mb]
Winds:from the N (10 degrees) at 7 MPH (6 knots; 3.1 m/s)
Visibility:10 or more sm (16+ km)
Ceiling:at least 12,000 feet AGL
Clouds:sky clear below 12,000 feet AGL
QC Flag:automated observation with no human augmentation
Text:KAFF 200458Z AUTO 34007KT 10SM OVC150 16/09 A3020 RMK AO2 SLP130 T01630085
Temperature: 16.3°C ( 61°F)
Dewpoint: 8.5°C ( 47°F) [RH = 60%]
Pressure (altimeter):30.20 inches Hg (1022.8 mb) [Sea level pressure: 1013.0 mb]
Winds:from the NNW (340 degrees) at 8 MPH (7 knots; 3.6 m/s)
Visibility:10 or more sm (16+ km)
Ceiling:15000 feet AGL
Clouds: overcast cloud deck at 15000 feet AGL
QC Flag:automated observation with no human augmentation
Text:KAFF 200358Z AUTO 36004KT 10SM BKN130 BKN170 19/08 A3019 RMK AO2 SLP123 T01860079
Temperature: 18.6°C ( 65°F)
Dewpoint: 7.9°C ( 46°F) [RH = 50%]
Pressure (altimeter):30.19 inches Hg (1022.4 mb) [Sea level pressure: 1012.3 mb]
Winds:from the N (360 degrees) at 5 MPH (4 knots; 2.1 m/s)
Visibility:10 or more sm (16+ km)
Ceiling:13000 feet AGL
Clouds: broken clouds at 13000 feet AGL, broken clouds at 17000 feet AGL
QC Flag:automated observation with no human augmentation
Text:KAFF 200258Z AUTO 00000KT 10SM BKN130 BKN150 20/06 A3018 RMK AO2 SLP123 60000 T02000058 53010
Temperature: 20.0°C ( 68°F)
Dewpoint: 5.8°C ( 42°F) [RH = 39%]
Pressure (altimeter):30.18 inches Hg (1022.1 mb) [Sea level pressure: 1012.3 mb]
Winds:calm
Visibility:10 or more sm (16+ km)
Ceiling:13000 feet AGL
Clouds: broken clouds at 13000 feet AGL, broken clouds at 15000 feet AGL
QC Flag:automated observation with no human augmentation
Text:KAFF 200158Z AUTO 34003KT 10SM SCT130 21/07 A3016 RMK AO2 SLP122 T02110068
Temperature: 21.1°C ( 70°F)
Dewpoint: 6.8°C ( 44°F) [RH = 39%]
Pressure (altimeter):30.16 inches Hg (1021.4 mb) [Sea level pressure: 1012.2 mb]
Winds:from the NNW (340 degrees) at 3 MPH (3 knots; 1.5 m/s)
Visibility:10 or more sm (16+ km)
Ceiling:at least 12,000 feet AGL
Clouds: scattered clouds at 13000 feet AGL
QC Flag:automated observation with no human augmentation
Text:KAFF 200058Z AUTO 03006KT 10SM FEW130 24/09 A3015 RMK AO2 PK WND 28033/21 LTG DSNT SE DZB06E18DZB22E23RAB23E24DZB24E26RAB26E38 SLP134 P0000 T02370088
Temperature: 23.7°C ( 75°F)
Dewpoint: 8.8°C ( 48°F) [RH = 39%]
Pressure (altimeter):30.15 inches Hg (1021.1 mb) [Sea level pressure: 1013.4 mb]
Winds:from the NNE (30 degrees) at 7 MPH (6 knots; 3.1 m/s)
Visibility:10 or more sm (16+ km)
Ceiling:at least 12,000 feet AGL
Clouds: few clouds at 13000 feet AGL
QC Flag:automated observation with no human augmentation
Text:KAFF 200038Z AUTO 06008KT 10SM FEW038 SCT055 SCT080 BKN110 BKN130 25/05 A3014 RMK AO2 DZB06E18DZB22E23RAB23E24DZB24E26RAB26E38 SLP125
Temperature: 25.0°C ( 77°F)
Dewpoint: 5.0°C ( 41°F) [RH = 28%]
Pressure (altimeter):30.14 inches Hg (1020.7 mb) [Sea level pressure: 1012.5 mb]
Winds:from the ENE (60 degrees) at 9 MPH (8 knots; 4.1 m/s)
Visibility:10 or more sm (16+ km)
Ceiling:11000 feet AGL
Clouds: few clouds at 3800 feet AGL, scattered clouds at 5500 feet AGL, scattered clouds at 8000 feet AGL, broken clouds at 11000 feet AGL
QC Flag:automated observation with no human augmentation
Text:KAFF 200023Z AUTO 17014G27KT 10SM -DZ FEW042 SCT055 BKN080 OVC100 26/05 A3015 RMK AO2 DZB06E18DZB22 SLP129
Temperature: 26.0°C ( 79°F)
Dewpoint: 5.0°C ( 41°F) [RH = 26%]
Pressure (altimeter):30.15 inches Hg (1021.1 mb) [Sea level pressure: 1012.9 mb]
Winds:from the S (170 degrees) at 16 MPH (14 knots; 7.2 m/s) gusting to 31 MPH (27 knots; 13.9 m/s)
Visibility:10 or more sm (16+ km)
Ceiling:8000 feet AGL
Clouds: few clouds at 4200 feet AGL, scattered clouds at 5500 feet AGL, broken clouds at 8000 feet AGL, overcast cloud deck at 10000 feet AGL
Weather:-DZ (light drizzle)
QC Flag:automated observation with no human augmentation
Text:KAFF 200022Z AUTO 20014G27KT 10SM FEW055 SCT080 OVC110 26/04 A3015 RMK AO2 WSHFT 20 DZB06E18 SLP129
Temperature: 26.0°C ( 79°F)
Dewpoint: 4.0°C ( 39°F) [RH = 24%]
Pressure (altimeter):30.15 inches Hg (1021.1 mb) [Sea level pressure: 1012.9 mb]
Winds:from the SSW (200 degrees) at 16 MPH (14 knots; 7.2 m/s) gusting to 31 MPH (27 knots; 13.9 m/s)
Visibility:10 or more sm (16+ km)
Ceiling:11000 feet AGL
Clouds: few clouds at 5500 feet AGL, scattered clouds at 8000 feet AGL, overcast cloud deck at 11000 feet AGL
QC Flag:automated observation with no human augmentation
Text:KAFF 200018Z AUTO 19008KT 10SM FEW055 SCT080 OVC110 25/05 A3015 RMK AO2 DZB06E18 SLP129
Temperature: 25.0°C ( 77°F)
Dewpoint: 5.0°C ( 41°F) [RH = 28%]
Pressure (altimeter):30.15 inches Hg (1021.1 mb) [Sea level pressure: 1012.9 mb]
Winds:from the S (190 degrees) at 9 MPH (8 knots; 4.1 m/s)
Visibility:10 or more sm (16+ km)
Ceiling:11000 feet AGL
Clouds: few clouds at 5500 feet AGL, scattered clouds at 8000 feet AGL, overcast cloud deck at 11000 feet AGL
QC Flag:automated observation with no human augmentation
Text:KAFF 200006Z AUTO 24003KT 10SM -DZ OVC100 25/04 A3014 RMK AO2 DZB06 SLP125
Temperature: 25.0°C ( 77°F)
Dewpoint: 4.0°C ( 39°F) [RH = 26%]
Pressure (altimeter):30.14 inches Hg (1020.7 mb) [Sea level pressure: 1012.5 mb]
Winds:from the WSW (240 degrees) at 3 MPH (3 knots; 1.5 m/s)
Visibility:10 or more sm (16+ km)
Ceiling:10000 feet AGL
Clouds: overcast cloud deck at 10000 feet AGL
Weather:-DZ (light drizzle)
QC Flag:automated observation with no human augmentation
Text:KAFF 192358Z AUTO 36005KT 10SM OVC110 25/04 A3014 RMK AO2 PK WND 35026/00 RAE11DZB11E14 SLP130 P0000 60000 T02450039 10304 20242 53003
Temperature: 24.5°C ( 76°F)
Dewpoint: 3.9°C ( 39°F) [RH = 26%]
Pressure (altimeter):30.14 inches Hg (1020.7 mb) [Sea level pressure: 1013.0 mb]
Winds:from the N (360 degrees) at 6 MPH (5 knots; 2.6 m/s)
Visibility:10 or more sm (16+ km)
Ceiling:11000 feet AGL
Clouds: overcast cloud deck at 11000 feet AGL
QC Flag:automated observation with no human augmentation
Text:KAFF 192314Z AUTO 04011G23KT 10SM FEW060 SCT100 BKN130 25/02 A3012 RMK AO2 LTG DSNT NE RAE11DZB11E14 PRESFR SLP118
Temperature: 25.0°C ( 77°F)
Dewpoint: 2.0°C ( 36°F) [RH = 22%]
Pressure (altimeter):30.12 inches Hg (1020.1 mb) [Sea level pressure: 1011.8 mb]
Winds:from the NE (40 degrees) at 13 MPH (11 knots; 5.7 m/s) gusting to 26 MPH (23 knots; 11.8 m/s)
Visibility:10 or more sm (16+ km)
Ceiling:13000 feet AGL
Clouds: few clouds at 6000 feet AGL, scattered clouds at 10000 feet AGL, broken clouds at 13000 feet AGL
QC Flag:automated observation with no human augmentation
Text:KAFF 192258Z AUTO 36017G31KT 10SM -RA FEW030 BKN100 OVC120 27/02 A3014 RMK AO2 PK WND 36032/49 DZB54E57RAB57 SLP120 P0000 T02660017
Temperature: 26.6°C ( 80°F)
Dewpoint: 1.7°C ( 35°F) [RH = 20%]
Pressure (altimeter):30.14 inches Hg (1020.7 mb) [Sea level pressure: 1012.0 mb]
Winds:from the N (360 degrees) at 20 MPH (17 knots; 8.7 m/s) gusting to 36 MPH (31 knots; 15.9 m/s)
Visibility:10 or more sm (16+ km)
Ceiling:10000 feet AGL
Clouds: few clouds at 3000 feet AGL, broken clouds at 10000 feet AGL, overcast cloud deck at 12000 feet AGL
Weather:-RA (light rain)
QC Flag:automated observation with no human augmentation
Text:KAFF 192254Z AUTO 36015G31KT 10SM -DZ BKN100 OVC130 27/02 A3014 RMK AO2 DZB54 SLP120
Temperature: 27.0°C ( 81°F)
Dewpoint: 2.0°C ( 36°F) [RH = 20%]
Pressure (altimeter):30.14 inches Hg (1020.7 mb) [Sea level pressure: 1012.0 mb]
Winds:from the N (360 degrees) at 17 MPH (15 knots; 7.7 m/s) gusting to 36 MPH (31 knots; 15.9 m/s)
Visibility:10 or more sm (16+ km)
Ceiling:10000 feet AGL
Clouds: broken clouds at 10000 feet AGL, overcast cloud deck at 13000 feet AGL
Weather:-DZ (light drizzle)
QC Flag:automated observation with no human augmentation
Text:KAFF 192249Z AUTO 34019G29KT 10SM BKN100 OVC130 27/00 A3014 RMK AO2 WSHFT 44 SLP120
Temperature: 27.0°C ( 81°F)
Dewpoint: 0.0°C ( 32°F) [RH = 17%]
Pressure (altimeter):30.14 inches Hg (1020.7 mb) [Sea level pressure: 1012.0 mb]
Winds:from the NNW (340 degrees) at 22 MPH (19 knots; 9.8 m/s) gusting to 33 MPH (29 knots; 14.9 m/s)
Visibility:10 or more sm (16+ km)
Ceiling:10000 feet AGL
Clouds: broken clouds at 10000 feet AGL, overcast cloud deck at 13000 feet AGL
QC Flag:automated observation with no human augmentation
Text:KAFF 192158Z AUTO 18013KT 10SM SCT130 SCT150 29/02 A3011 RMK AO2 SLP104 T02920019
Temperature: 29.2°C ( 85°F)
Dewpoint: 1.9°C ( 35°F) [RH = 17%]
Pressure (altimeter):30.11 inches Hg (1019.7 mb) [Sea level pressure: 1010.4 mb]
Winds:from the S (180 degrees) at 15 MPH (13 knots; 6.7 m/s)
Visibility:10 or more sm (16+ km)
Ceiling:at least 12,000 feet AGL
Clouds: scattered clouds at 13000 feet AGL, scattered clouds at 15000 feet AGL
QC Flag:automated observation with no human augmentation
Text:KAFF 192058Z AUTO 18010G14KT 10SM CLR 30/01 A3013 RMK AO2 SLP108 T02990013 57020
Temperature: 29.9°C ( 86°F)
Dewpoint: 1.3°C ( 34°F) [RH = 16%]
Pressure (altimeter):30.13 inches Hg (1020.4 mb) [Sea level pressure: 1010.8 mb]
Winds:from the S (180 degrees) at 12 MPH (10 knots; 5.1 m/s) gusting to 16 MPH (14 knots; 7.2 m/s)
Visibility:10 or more sm (16+ km)
Ceiling:at least 12,000 feet AGL
Clouds:sky clear below 12,000 feet AGL
QC Flag:automated observation with no human augmentation
Text:KAFF 191958Z AUTO 20003G22KT 10SM FEW120 30/01 A3016 RMK AO2 SLP112 T02990013
Temperature: 29.9°C ( 86°F)
Dewpoint: 1.3°C ( 34°F) [RH = 16%]
Pressure (altimeter):30.16 inches Hg (1021.4 mb) [Sea level pressure: 1011.2 mb]
Winds:from the SSW (200 degrees) at 3 MPH (3 knots; 1.5 m/s) gusting to 25 MPH (22 knots; 11.3 m/s)
Visibility:10 or more sm (16+ km)
Ceiling:at least 12,000 feet AGL
Clouds: few clouds at 12000 feet AGL
QC Flag:automated observation with no human augmentation
Text:KAFF 191950Z AUTO 20015G22KT 10SM SCT120 30/00 A3016 RMK AO2 WSHFT 49 SLP112
Temperature: 30.0°C ( 86°F)
Dewpoint: 0.0°C ( 32°F) [RH = 14%]
Pressure (altimeter):30.16 inches Hg (1021.4 mb) [Sea level pressure: 1011.2 mb]
Winds:from the SSW (200 degrees) at 17 MPH (15 knots; 7.7 m/s) gusting to 25 MPH (22 knots; 11.3 m/s)
Visibility:10 or more sm (16+ km)
Ceiling:at least 12,000 feet AGL
Clouds: scattered clouds at 12000 feet AGL
QC Flag:automated observation with no human augmentation
Text:KAFF 191949Z AUTO 25015G22KT 10SM SCT120 30/00 A3016 RMK AO2 WSHFT 48 SLP112
Temperature: 30.0°C ( 86°F)
Dewpoint: 0.0°C ( 32°F) [RH = 14%]
Pressure (altimeter):30.16 inches Hg (1021.4 mb) [Sea level pressure: 1011.2 mb]
Winds:from the WSW (250 degrees) at 17 MPH (15 knots; 7.7 m/s) gusting to 25 MPH (22 knots; 11.3 m/s)
Visibility:10 or more sm (16+ km)
Ceiling:at least 12,000 feet AGL
Clouds: scattered clouds at 12000 feet AGL
QC Flag:automated observation with no human augmentation
Text:KAFF 191858Z AUTO 23009G17KT 10SM FEW130 30/M03 A3018 RMK AO2 SLP123 T02951027
Temperature: 29.5°C ( 85°F)
Dewpoint: -2.7°C ( 27°F) [RH = 12%]
Pressure (altimeter):30.18 inches Hg (1022.1 mb) [Sea level pressure: 1012.3 mb]
Winds:from the SW (230 degrees) at 10 MPH (9 knots; 4.6 m/s) gusting to 20 MPH (17 knots; 8.7 m/s)
Visibility:10 or more sm (16+ km)
Ceiling:at least 12,000 feet AGL
Clouds: few clouds at 13000 feet AGL
QC Flag:automated observation with no human augmentation
Text:KAFF 191846Z AUTO 23013G18KT 10SM SCT130 29/00 A3018 RMK AO2 WSHFT 44 SLP120
Temperature: 29.0°C ( 84°F)
Dewpoint: 0.0°C ( 32°F) [RH = 15%]
Pressure (altimeter):30.18 inches Hg (1022.1 mb) [Sea level pressure: 1012.0 mb]
Winds:from the SW (230 degrees) at 15 MPH (13 knots; 6.7 m/s) gusting to 21 MPH (18 knots; 9.3 m/s)
Visibility:10 or more sm (16+ km)
Ceiling:at least 12,000 feet AGL
Clouds: scattered clouds at 13000 feet AGL
QC Flag:automated observation with no human augmentation
Text:KAFF 191830Z AUTO 27011G19KT 10SM CLR 29/M01 A3018 RMK AO2 WSHFT 27 SLP120
Temperature: 29.0°C ( 84°F)
Dewpoint: -1.0°C ( 30°F) [RH = 14%]
Pressure (altimeter):30.18 inches Hg (1022.1 mb) [Sea level pressure: 1012.0 mb]
Winds:from the W (270 degrees) at 13 MPH (11 knots; 5.7 m/s) gusting to 22 MPH (19 knots; 9.8 m/s)
Visibility:10 or more sm (16+ km)
Ceiling:at least 12,000 feet AGL
Clouds:sky clear below 12,000 feet AGL
QC Flag:automated observation with no human augmentation
Text:KAFF 191805Z AUTO 29014G20KT 10SM CLR 29/M02 A3020 RMK AO2 WSHFT 00 SLP123
Temperature: 29.0°C ( 84°F)
Dewpoint: -2.0°C ( 28°F) [RH = 13%]
Pressure (altimeter):30.20 inches Hg (1022.8 mb) [Sea level pressure: 1012.3 mb]
Winds:from the WNW (290 degrees) at 16 MPH (14 knots; 7.2 m/s) gusting to 23 MPH (20 knots; 10.3 m/s)
Visibility:10 or more sm (16+ km)
Ceiling:at least 12,000 feet AGL
Clouds:sky clear below 12,000 feet AGL
QC Flag:automated observation with no human augmentation
Text:KAFF 191758Z AUTO 26015KT 10SM CLR 29/M02 A3020 RMK AO2 SLP123 T02901020 10290 20096 58005
Temperature: 29.0°C ( 84°F)
Dewpoint: -2.0°C ( 28°F) [RH = 13%]
Pressure (altimeter):30.20 inches Hg (1022.8 mb) [Sea level pressure: 1012.3 mb]
Winds:from the W (260 degrees) at 17 MPH (15 knots; 7.7 m/s)
Visibility:10 or more sm (16+ km)
Ceiling:at least 12,000 feet AGL
Clouds:sky clear below 12,000 feet AGL
QC Flag:automated observation with no human augmentation
Text:KAFF 191658Z AUTO 29009G15KT 10SM FEW130 28/01 A3021 RMK AO2 SLP130 T02790005
Temperature: 27.9°C ( 82°F)
Dewpoint: 0.5°C ( 33°F) [RH = 17%]
Pressure (altimeter):30.21 inches Hg (1023.1 mb) [Sea level pressure: 1013.0 mb]
Winds:from the WNW (290 degrees) at 10 MPH (9 knots; 4.6 m/s) gusting to 17 MPH (15 knots; 7.7 m/s)
Visibility:10 or more sm (16+ km)
Ceiling:at least 12,000 feet AGL
Clouds: few clouds at 13000 feet AGL
QC Flag:automated observation with no human augmentation
Text:KAFF 191558Z AUTO 03004KT 10SM CLR 26/04 A3022 RMK AO2 SLP134 T02620042
Temperature: 26.2°C ( 79°F)
Dewpoint: 4.2°C ( 40°F) [RH = 24%]
Pressure (altimeter):30.22 inches Hg (1023.5 mb) [Sea level pressure: 1013.4 mb]
Winds:from the NNE (30 degrees) at 5 MPH (4 knots; 2.1 m/s)
Visibility:10 or more sm (16+ km)
Ceiling:at least 12,000 feet AGL
Clouds:sky clear below 12,000 feet AGL
QC Flag:automated observation with no human augmentation
Text:KAFF 191458Z AUTO 05005KT 10SM CLR 23/07 A3022 RMK AO2 SLP137 T02340067 53001
Temperature: 23.4°C ( 74°F)
Dewpoint: 6.7°C ( 44°F) [RH = 34%]
Pressure (altimeter):30.22 inches Hg (1023.5 mb) [Sea level pressure: 1013.7 mb]
Winds:from the NE (50 degrees) at 6 MPH (5 knots; 2.6 m/s)
Visibility:10 or more sm (16+ km)
Ceiling:at least 12,000 feet AGL
Clouds:sky clear below 12,000 feet AGL
QC Flag:automated observation with no human augmentation
Text:KAFF 191358Z AUTO 05008KT 10SM CLR 19/07 A3022 RMK AO2 SLP143 T01850073
Temperature: 18.5°C ( 65°F)
Dewpoint: 7.3°C ( 45°F) [RH = 48%]
Pressure (altimeter):30.22 inches Hg (1023.5 mb) [Sea level pressure: 1014.3 mb]
Winds:from the NE (50 degrees) at 9 MPH (8 knots; 4.1 m/s)
Visibility:10 or more sm (16+ km)
Ceiling:at least 12,000 feet AGL
Clouds:sky clear below 12,000 feet AGL
QC Flag:automated observation with no human augmentation
Text:KAFF 191258Z AUTO 36005KT 10SM FEW140 10/08 A3021 RMK AO2 SLP155 T00990075
Temperature: 9.9°C ( 50°F)
Dewpoint: 7.5°C ( 46°F) [RH = 85%]
Pressure (altimeter):30.21 inches Hg (1023.1 mb) [Sea level pressure: 1015.5 mb]
Winds:from the N (360 degrees) at 6 MPH (5 knots; 2.6 m/s)
Visibility:10 or more sm (16+ km)
Ceiling:at least 12,000 feet AGL
Clouds: few clouds at 14000 feet AGL
QC Flag:automated observation with no human augmentation
Text:KAFF 191158Z AUTO 34008KT 10SM SCT120 10/08 A3021 RMK AO2 SLP150 T00990077 10190 20099 56007
Temperature: 9.9°C ( 50°F)
Dewpoint: 7.7°C ( 46°F) [RH = 86%]
Pressure (altimeter):30.21 inches Hg (1023.1 mb) [Sea level pressure: 1015.0 mb]
Winds:from the NNW (340 degrees) at 9 MPH (8 knots; 4.1 m/s)
Visibility:10 or more sm (16+ km)
Ceiling:at least 12,000 feet AGL
Clouds: scattered clouds at 12000 feet AGL
QC Flag:automated observation with no human augmentation
Text:KAFF 191058Z AUTO 01006KT 10SM FEW140 11/08 A3022 RMK AO2 SLP148 T01050081
Temperature: 10.5°C ( 51°F)
Dewpoint: 8.1°C ( 47°F) [RH = 85%]
Pressure (altimeter):30.22 inches Hg (1023.5 mb) [Sea level pressure: 1014.8 mb]
Winds:from the N (10 degrees) at 7 MPH (6 knots; 3.1 m/s)
Visibility:10 or more sm (16+ km)
Ceiling:at least 12,000 feet AGL
Clouds: few clouds at 14000 feet AGL
QC Flag:automated observation with no human augmentation
Text:KAFF 190958Z AUTO 36008KT 10SM CLR 11/08 A3022 RMK AO2 SLP148 T01070079
Temperature: 10.7°C ( 51°F)
Dewpoint: 7.9°C ( 46°F) [RH = 83%]
Pressure (altimeter):30.22 inches Hg (1023.5 mb) [Sea level pressure: 1014.8 mb]
Winds:from the N (360 degrees) at 9 MPH (8 knots; 4.1 m/s)
Visibility:10 or more sm (16+ km)
Ceiling:at least 12,000 feet AGL
Clouds:sky clear below 12,000 feet AGL
QC Flag:automated observation with no human augmentation
Text:KAFF 190858Z AUTO 34006KT 10SM CLR 11/08 A3024 RMK AO2 SLP155 T01130081 57012
Temperature: 11.3°C ( 52°F)
Dewpoint: 8.1°C ( 47°F) [RH = 81%]
Pressure (altimeter):30.24 inches Hg (1024.1 mb) [Sea level pressure: 1015.5 mb]
Winds:from the NNW (340 degrees) at 7 MPH (6 knots; 3.1 m/s)
Visibility:10 or more sm (16+ km)
Ceiling:at least 12,000 feet AGL
Clouds:sky clear below 12,000 feet AGL
QC Flag:automated observation with no human augmentation
Text:KAFF 190758Z AUTO 00000KT 10SM CLR 16/08 A3025 RMK AO2 SLP147 T01630081
Temperature: 16.3°C ( 61°F)
Dewpoint: 8.1°C ( 47°F) [RH = 58%]
Pressure (altimeter):30.25 inches Hg (1024.5 mb) [Sea level pressure: 1014.7 mb]
Winds:calm
Visibility:10 or more sm (16+ km)
Ceiling:at least 12,000 feet AGL
Clouds:sky clear below 12,000 feet AGL
QC Flag:automated observation with no human augmentation
Text:KAFF 190658Z AUTO 20004KT 10SM CLR 15/08 A3027 RMK AO2 SLP154 T01530080 402800096
Temperature: 15.3°C ( 60°F)
Dewpoint: 8.0°C ( 46°F) [RH = 62%]
Pressure (altimeter):30.27 inches Hg (1025.1 mb) [Sea level pressure: 1015.4 mb]
Winds:from the SSW (200 degrees) at 5 MPH (4 knots; 2.1 m/s)
Visibility:10 or more sm (16+ km)
Ceiling:at least 12,000 feet AGL
Clouds:sky clear below 12,000 feet AGL
QC Flag:automated observation with no human augmentation
Text:KAFF 190558Z AUTO 13011KT 10SM CLR 18/07 A3028 RMK AO2 SLP155 T01820066 10257 20143 50006
Temperature: 18.2°C ( 65°F)
Dewpoint: 6.6°C ( 44°F) [RH = 47%]
Pressure (altimeter):30.28 inches Hg (1025.5 mb) [Sea level pressure: 1015.5 mb]
Winds:from the SE (130 degrees) at 13 MPH (11 knots; 5.7 m/s)
Visibility:10 or more sm (16+ km)
Ceiling:at least 12,000 feet AGL
Clouds:sky clear below 12,000 feet AGL
QC Flag:automated observation with no human augmentation